sensor_id;sensor_type;location;lat;lon;timestamp;P1;durP1;ratioP1;P2;durP2;ratioP2
10191;SDS011;17580;50.850;4.504;2023-06-22T00:00:48;3.83;;;3.53;;
10191;SDS011;17580;50.850;4.504;2023-06-22T00:03:16;3.90;;;3.50;;
10191;SDS011;17580;50.850;4.504;2023-06-22T00:05:44;3.70;;;3.37;;
10191;SDS011;17580;50.850;4.504;2023-06-22T00:08:12;4.23;;;3.50;;
10191;SDS011;17580;50.850;4.504;2023-06-22T00:10:39;3.90;;;3.60;;
10191;SDS011;17580;50.850;4.504;2023-06-22T00:13:07;3.63;;;3.33;;
10191;SDS011;17580;50.850;4.504;2023-06-22T00:15:37;3.30;;;3.10;;
10191;SDS011;17580;50.850;4.504;2023-06-22T00:18:05;2.90;;;2.70;;
10191;SDS011;17580;50.850;4.504;2023-06-22T00:20:32;3.37;;;2.80;;
10191;SDS011;17580;50.850;4.504;2023-06-22T00:23:02;3.13;;;2.90;;
10191;SDS011;17580;50.850;4.504;2023-06-22T00:25:33;3.27;;;3.07;;
10191;SDS011;17580;50.850;4.504;2023-06-22T00:28:01;3.20;;;3.00;;
10191;SDS011;17580;50.850;4.504;2023-06-22T00:30:29;2.87;;;2.70;;
10191;SDS011;17580;50.850;4.504;2023-06-22T00:32:57;5.73;;;3.30;;
10191;SDS011;17580;50.850;4.504;2023-06-22T00:35:24;3.10;;;2.80;;
10191;SDS011;17580;50.850;4.504;2023-06-22T00:37:54;3.80;;;3.40;;
10191;SDS011;17580;50.850;4.504;2023-06-22T00:40:26;3.67;;;3.30;;
10191;SDS011;17580;50.850;4.504;2023-06-22T00:42:53;3.50;;;3.20;;
10191;SDS011;17580;50.850;4.504;2023-06-22T00:45:20;3.30;;;3.10;;
10191;SDS011;17580;50.850;4.504;2023-06-22T00:47:49;3.07;;;2.87;;
10191;SDS011;17580;50.850;4.504;2023-06-22T00:50:19;2.90;;;2.70;;
10191;SDS011;17580;50.850;4.504;2023-06-22T00:52:49;2.87;;;2.67;;
10191;SDS011;17580;50.850;4.504;2023-06-22T00:55:18;3.07;;;2.87;;
10191;SDS011;17580;50.850;4.504;2023-06-22T00:57:45;2.87;;;2.70;;
10191;SDS011;17580;50.850;4.504;2023-06-22T01:00:13;2.90;;;2.73;;
10191;SDS011;17580;50.850;4.504;2023-06-22T01:02:44;3.97;;;2.97;;
10191;SDS011;17580;50.850;4.504;2023-06-22T01:05:12;2.93;;;2.73;;
10191;SDS011;17580;50.850;4.504;2023-06-22T01:07:43;3.40;;;3.10;;
10191;SDS011;17580;50.850;4.504;2023-06-22T01:10:21;3.20;;;2.90;;
10191;SDS011;17580;50.850;4.504;2023-06-22T01:12:55;3.40;;;3.20;;
10191;SDS011;17580;50.850;4.504;2023-06-22T01:15:28;3.33;;;3.13;;
10191;SDS011;17580;50.850;4.504;2023-06-22T01:18:01;3.47;;;3.20;;
10191;SDS011;17580;50.850;4.504;2023-06-22T01:20:31;3.50;;;3.20;;
10191;SDS011;17580;50.850;4.504;2023-06-22T01:23:05;3.60;;;3.30;;
10191;SDS011;17580;50.850;4.504;2023-06-22T01:25:40;3.37;;;3.17;;
10191;SDS011;17580;50.850;4.504;2023-06-22T01:28:19;3.20;;;2.67;;
10191;SDS011;17580;50.850;4.504;2023-06-22T01:30:59;2.73;;;2.57;;
10191;SDS011;17580;50.850;4.504;2023-06-22T01:33:31;3.10;;;2.90;;
10191;SDS011;17580;50.850;4.504;2023-06-22T01:36:01;5.07;;;3.43;;
10191;SDS011;17580;50.850;4.504;2023-06-22T01:38:29;2.43;;;2.33;;
10191;SDS011;17580;50.850;4.504;2023-06-22T01:40:57;3.03;;;2.80;;
10191;SDS011;17580;50.850;4.504;2023-06-22T01:43:25;3.13;;;2.93;;
10191;SDS011;17580;50.850;4.504;2023-06-22T01:45:55;3.63;;;3.33;;
10191;SDS011;17580;50.850;4.504;2023-06-22T01:48:23;3.17;;;2.87;;
10191;SDS011;17580;50.850;4.504;2023-06-22T01:50:51;3.43;;;2.93;;
10191;SDS011;17580;50.850;4.504;2023-06-22T01:53:20;3.17;;;2.97;;
10191;SDS011;17580;50.850;4.504;2023-06-22T01:55:47;2.97;;;2.83;;
10191;SDS011;17580;50.850;4.504;2023-06-22T01:58:14;2.90;;;2.77;;
10191;SDS011;17580;50.850;4.504;2023-06-22T02:00:44;6.33;;;3.50;;
10191;SDS011;17580;50.850;4.504;2023-06-22T02:03:18;3.37;;;3.17;;
10191;SDS011;17580;50.850;4.504;2023-06-22T02:05:49;3.03;;;2.83;;
10191;SDS011;17580;50.850;4.504;2023-06-22T02:08:19;3.10;;;2.90;;
10191;SDS011;17580;50.850;4.504;2023-06-22T02:10:48;3.13;;;2.93;;
10191;SDS011;17580;50.850;4.504;2023-06-22T02:13:18;3.07;;;2.87;;
10191;SDS011;17580;50.850;4.504;2023-06-22T02:15:45;2.93;;;2.73;;
10191;SDS011;17580;50.850;4.504;2023-06-22T02:18:13;3.47;;;3.13;;
10191;SDS011;17580;50.850;4.504;2023-06-22T02:20:42;3.10;;;2.90;;
10191;SDS011;17580;50.850;4.504;2023-06-22T02:23:09;3.10;;;2.90;;
10191;SDS011;17580;50.850;4.504;2023-06-22T02:25:36;8.17;;;3.10;;
10191;SDS011;17580;50.850;4.504;2023-06-22T02:28:03;3.47;;;3.20;;
10191;SDS011;17580;50.850;4.504;2023-06-22T02:30:31;3.30;;;3.10;;
10191;SDS011;17580;50.850;4.504;2023-06-22T02:32:58;3.90;;;3.60;;
10191;SDS011;17580;50.850;4.504;2023-06-22T02:35:25;4.10;;;3.80;;
10191;SDS011;17580;50.850;4.504;2023-06-22T02:37:57;4.63;;;4.10;;
10191;SDS011;17580;50.850;4.504;2023-06-22T02:40:25;4.40;;;4.10;;
10191;SDS011;17580;50.850;4.504;2023-06-22T02:42:52;4.37;;;3.97;;
10191;SDS011;17580;50.850;4.504;2023-06-22T02:45:19;4.40;;;4.10;;
10191;SDS011;17580;50.850;4.504;2023-06-22T02:47:46;5.07;;;4.57;;
10191;SDS011;17580;50.850;4.504;2023-06-22T02:50:13;4.17;;;3.87;;
10191;SDS011;17580;50.850;4.504;2023-06-22T02:52:40;5.87;;;4.30;;
10191;SDS011;17580;50.850;4.504;2023-06-22T02:55:09;4.27;;;3.87;;
10191;SDS011;17580;50.850;4.504;2023-06-22T02:57:36;3.87;;;3.57;;
10191;SDS011;17580;50.850;4.504;2023-06-22T03:00:09;4.23;;;3.83;;
10191;SDS011;17580;50.850;4.504;2023-06-22T03:02:42;6.10;;;4.00;;
10191;SDS011;17580;50.850;4.504;2023-06-22T03:05:09;5.50;;;5.00;;
10191;SDS011;17580;50.850;4.504;2023-06-22T03:07:40;5.27;;;4.87;;
10191;SDS011;17580;50.850;4.504;2023-06-22T03:10:09;5.13;;;4.60;;
10191;SDS011;17580;50.850;4.504;2023-06-22T03:12:37;5.10;;;4.60;;
10191;SDS011;17580;50.850;4.504;2023-06-22T03:15:05;4.77;;;4.37;;
10191;SDS011;17580;50.850;4.504;2023-06-22T03:17:33;4.87;;;4.13;;
10191;SDS011;17580;50.850;4.504;2023-06-22T03:20:00;5.47;;;4.20;;
10191;SDS011;17580;50.850;4.504;2023-06-22T03:22:32;4.60;;;4.27;;
10191;SDS011;17580;50.850;4.504;2023-06-22T03:24:59;4.37;;;4.03;;
10191;SDS011;17580;50.850;4.504;2023-06-22T03:27:27;4.77;;;4.37;;
10191;SDS011;17580;50.850;4.504;2023-06-22T03:29:54;5.37;;;4.70;;
10191;SDS011;17580;50.850;4.504;2023-06-22T03:32:23;4.50;;;4.17;;
10191;SDS011;17580;50.850;4.504;2023-06-22T03:34:53;5.13;;;4.73;;
10191;SDS011;17580;50.850;4.504;2023-06-22T03:37:23;5.37;;;4.87;;
10191;SDS011;17580;50.850;4.504;2023-06-22T03:39:50;4.50;;;4.10;;
10191;SDS011;17580;50.850;4.504;2023-06-22T03:42:18;6.13;;;4.60;;
10191;SDS011;17580;50.850;4.504;2023-06-22T03:44:46;4.93;;;4.50;;
10191;SDS011;17580;50.850;4.504;2023-06-22T03:47:13;5.97;;;4.57;;
10191;SDS011;17580;50.850;4.504;2023-06-22T03:49:40;4.87;;;4.30;;
10191;SDS011;17580;50.850;4.504;2023-06-22T03:52:07;4.73;;;4.30;;
10191;SDS011;17580;50.850;4.504;2023-06-22T03:54:36;5.67;;;5.10;;
10191;SDS011;17580;50.850;4.504;2023-06-22T03:57:03;5.07;;;4.67;;
10191;SDS011;17580;50.850;4.504;2023-06-22T03:59:31;5.10;;;4.63;;
10191;SDS011;17580;50.850;4.504;2023-06-22T04:02:00;5.03;;;4.53;;
10191;SDS011;17580;50.850;4.504;2023-06-22T04:04:27;4.90;;;4.50;;
10191;SDS011;17580;50.850;4.504;2023-06-22T04:06:54;4.57;;;4.27;;
10191;SDS011;17580;50.850;4.504;2023-06-22T04:09:21;4.60;;;4.07;;
10191;SDS011;17580;50.850;4.504;2023-06-22T04:11:48;4.47;;;4.07;;
10191;SDS011;17580;50.850;4.504;2023-06-22T04:14:15;4.63;;;4.27;;
10191;SDS011;17580;50.850;4.504;2023-06-22T04:16:41;4.80;;;3.53;;
10191;SDS011;17580;50.850;4.504;2023-06-22T04:19:10;4.37;;;3.97;;
10191;SDS011;17580;50.850;4.504;2023-06-22T04:21:42;4.47;;;4.03;;
10191;SDS011;17580;50.850;4.504;2023-06-22T04:24:10;4.40;;;4.00;;
10191;SDS011;17580;50.850;4.504;2023-06-22T04:26:37;4.53;;;4.23;;
10191;SDS011;17580;50.850;4.504;2023-06-22T04:29:06;4.57;;;4.17;;
10191;SDS011;17580;50.850;4.504;2023-06-22T04:31:33;4.43;;;4.03;;
10191;SDS011;17580;50.850;4.504;2023-06-22T04:34:01;4.03;;;3.73;;
10191;SDS011;17580;50.850;4.504;2023-06-22T04:36:33;6.40;;;4.13;;
10191;SDS011;17580;50.850;4.504;2023-06-22T04:39:03;4.77;;;4.47;;
10191;SDS011;17580;50.850;4.504;2023-06-22T04:41:31;4.73;;;4.37;;
10191;SDS011;17580;50.850;4.504;2023-06-22T04:44:07;4.50;;;4.10;;
10191;SDS011;17580;50.850;4.504;2023-06-22T04:46:35;5.23;;;4.73;;
10191;SDS011;17580;50.850;4.504;2023-06-22T04:49:04;4.47;;;4.17;;
10191;SDS011;17580;50.850;4.504;2023-06-22T04:51:36;5.63;;;4.60;;
10191;SDS011;17580;50.850;4.504;2023-06-22T04:54:05;5.20;;;4.63;;
10191;SDS011;17580;50.850;4.504;2023-06-22T04:56:32;4.33;;;3.93;;
10191;SDS011;17580;50.850;4.504;2023-06-22T04:58:59;5.57;;;4.90;;
10191;SDS011;17580;50.850;4.504;2023-06-22T05:01:26;5.60;;;4.47;;
10191;SDS011;17580;50.850;4.504;2023-06-22T05:03:53;4.07;;;3.77;;
10191;SDS011;17580;50.850;4.504;2023-06-22T05:06:22;6.55;;;6.00;;
10191;SDS011;17580;50.850;4.504;2023-06-22T05:08:52;4.97;;;4.57;;
10191;SDS011;17580;50.850;4.504;2023-06-22T05:11:22;5.00;;;4.63;;
10191;SDS011;17580;50.850;4.504;2023-06-22T05:13:49;5.00;;;4.50;;
10191;SDS011;17580;50.850;4.504;2023-06-22T05:16:17;5.27;;;4.77;;
10191;SDS011;17580;50.850;4.504;2023-06-22T05:18:49;4.60;;;4.17;;
10191;SDS011;17580;50.850;4.504;2023-06-22T05:21:21;5.43;;;5.00;;
10191;SDS011;17580;50.850;4.504;2023-06-22T05:23:49;5.07;;;4.67;;
10191;SDS011;17580;50.850;4.504;2023-06-22T05:26:18;5.30;;;4.77;;
10191;SDS011;17580;50.850;4.504;2023-06-22T05:28:45;5.73;;;5.13;;
10191;SDS011;17580;50.850;4.504;2023-06-22T05:31:13;6.27;;;5.17;;
10191;SDS011;17580;50.850;4.504;2023-06-22T05:33:40;5.33;;;4.83;;
10191;SDS011;17580;50.850;4.504;2023-06-22T05:36:08;5.57;;;5.07;;
10191;SDS011;17580;50.850;4.504;2023-06-22T05:38:35;6.00;;;5.40;;
10191;SDS011;17580;50.850;4.504;2023-06-22T05:41:04;5.87;;;5.17;;
10191;SDS011;17580;50.850;4.504;2023-06-22T05:43:31;5.17;;;4.67;;
10191;SDS011;17580;50.850;4.504;2023-06-22T05:45:59;6.17;;;5.67;;
10191;SDS011;17580;50.850;4.504;2023-06-22T05:48:26;5.40;;;4.97;;
10191;SDS011;17580;50.850;4.504;2023-06-22T05:50:53;6.10;;;5.00;;
10191;SDS011;17580;50.850;4.504;2023-06-22T05:53:20;5.70;;;5.20;;
10191;SDS011;17580;50.850;4.504;2023-06-22T05:55:47;9.33;;;6.30;;
10191;SDS011;17580;50.850;4.504;2023-06-22T05:58:16;6.63;;;5.97;;
10191;SDS011;17580;50.850;4.504;2023-06-22T06:00:43;6.10;;;5.60;;
10191;SDS011;17580;50.850;4.504;2023-06-22T06:03:11;6.93;;;6.20;;
10191;SDS011;17580;50.850;4.504;2023-06-22T06:05:42;6.73;;;6.03;;
10191;SDS011;17580;50.850;4.504;2023-06-22T06:08:09;6.93;;;6.33;;
10191;SDS011;17580;50.850;4.504;2023-06-22T06:10:37;7.43;;;6.73;;
10191;SDS011;17580;50.850;4.504;2023-06-22T06:13:04;9.63;;;7.03;;
10191;SDS011;17580;50.850;4.504;2023-06-22T06:15:33;7.73;;;7.03;;
10191;SDS011;17580;50.850;4.504;2023-06-22T06:18:00;7.87;;;7.17;;
10191;SDS011;17580;50.850;4.504;2023-06-22T06:20:30;7.77;;;6.93;;
10191;SDS011;17580;50.850;4.504;2023-06-22T06:22:57;7.70;;;7.00;;
10191;SDS011;17580;50.850;4.504;2023-06-22T06:25:24;9.13;;;7.17;;
10191;SDS011;17580;50.850;4.504;2023-06-22T06:27:51;7.63;;;6.80;;
10191;SDS011;17580;50.850;4.504;2023-06-22T06:30:19;9.40;;;8.50;;
10191;SDS011;17580;50.850;4.504;2023-06-22T06:32:49;7.90;;;7.30;;
10191;SDS011;17580;50.850;4.504;2023-06-22T06:35:16;8.73;;;7.93;;
10191;SDS011;17580;50.850;4.504;2023-06-22T06:37:44;8.97;;;8.07;;
10191;SDS011;17580;50.850;4.504;2023-06-22T06:40:12;8.90;;;7.70;;
10191;SDS011;17580;50.850;4.504;2023-06-22T06:42:41;8.40;;;7.63;;
10191;SDS011;17580;50.850;4.504;2023-06-22T06:45:10;8.90;;;8.00;;
10191;SDS011;17580;50.850;4.504;2023-06-22T06:47:37;7.97;;;7.17;;
10191;SDS011;17580;50.850;4.504;2023-06-22T06:50:07;8.13;;;7.37;;
10191;SDS011;17580;50.850;4.504;2023-06-22T06:52:34;8.77;;;7.97;;
10191;SDS011;17580;50.850;4.504;2023-06-22T06:55:02;9.73;;;8.67;;
10191;SDS011;17580;50.850;4.504;2023-06-22T06:57:33;8.73;;;8.03;;
10191;SDS011;17580;50.850;4.504;2023-06-22T07:00:00;8.30;;;7.60;;
10191;SDS011;17580;50.850;4.504;2023-06-22T07:02:32;9.90;;;8.33;;
10191;SDS011;17580;50.850;4.504;2023-06-22T07:04:59;10.17;;;9.17;;
10191;SDS011;17580;50.850;4.504;2023-06-22T07:07:30;11.17;;;8.30;;
10191;SDS011;17580;50.850;4.504;2023-06-22T07:09:57;9.80;;;8.27;;
10191;SDS011;17580;50.850;4.504;2023-06-22T07:12:25;9.73;;;8.83;;
10191;SDS011;17580;50.850;4.504;2023-06-22T07:14:52;9.80;;;8.80;;
10191;SDS011;17580;50.850;4.504;2023-06-22T07:17:19;9.37;;;8.43;;
10191;SDS011;17580;50.850;4.504;2023-06-22T07:19:46;9.30;;;8.40;;
10191;SDS011;17580;50.850;4.504;2023-06-22T07:22:12;7.87;;;7.23;;
10191;SDS011;17580;50.850;4.504;2023-06-22T07:24:41;8.93;;;8.13;;
10191;SDS011;17580;50.850;4.504;2023-06-22T07:27:08;9.07;;;8.27;;
10191;SDS011;17580;50.850;4.504;2023-06-22T07:29:36;9.63;;;8.83;;
10191;SDS011;17580;50.850;4.504;2023-06-22T07:32:05;8.77;;;8.00;;
10191;SDS011;17580;50.850;4.504;2023-06-22T07:34:32;7.97;;;7.17;;
10191;SDS011;17580;50.850;4.504;2023-06-22T07:36:59;8.47;;;7.77;;
10191;SDS011;17580;50.850;4.504;2023-06-22T07:39:26;7.33;;;6.63;;
10191;SDS011;17580;50.850;4.504;2023-06-22T07:41:55;8.10;;;7.33;;
10191;SDS011;17580;50.850;4.504;2023-06-22T07:44:23;8.70;;;7.33;;
10191;SDS011;17580;50.850;4.504;2023-06-22T07:46:50;8.27;;;7.57;;
10191;SDS011;17580;50.850;4.504;2023-06-22T07:49:17;10.47;;;8.87;;
10191;SDS011;17580;50.850;4.504;2023-06-22T07:51:44;8.43;;;7.70;;
10191;SDS011;17580;50.850;4.504;2023-06-22T07:54:11;10.23;;;8.60;;
10191;SDS011;17580;50.850;4.504;2023-06-22T07:56:40;11.53;;;8.73;;
10191;SDS011;17580;50.850;4.504;2023-06-22T07:59:09;9.07;;;8.17;;
10191;SDS011;17580;50.850;4.504;2023-06-22T08:01:36;8.67;;;7.87;;
10191;SDS011;17580;50.850;4.504;2023-06-22T08:04:03;8.70;;;7.73;;
10191;SDS011;17580;50.850;4.504;2023-06-22T08:06:31;8.97;;;8.17;;
10191;SDS011;17580;50.850;4.504;2023-06-22T08:08:58;8.57;;;7.77;;
10191;SDS011;17580;50.850;4.504;2023-06-22T08:11:25;10.40;;;9.30;;
10191;SDS011;17580;50.850;4.504;2023-06-22T08:13:52;7.67;;;7.07;;
10191;SDS011;17580;50.850;4.504;2023-06-22T08:16:22;8.60;;;7.80;;
10191;SDS011;17580;50.850;4.504;2023-06-22T08:18:49;9.03;;;7.70;;
10191;SDS011;17580;50.850;4.504;2023-06-22T08:21:16;8.57;;;7.77;;
10191;SDS011;17580;50.850;4.504;2023-06-22T08:23:43;9.43;;;8.63;;
10191;SDS011;17580;50.850;4.504;2023-06-22T08:26:10;8.10;;;7.40;;
10191;SDS011;17580;50.850;4.504;2023-06-22T08:28:37;8.90;;;8.17;;
10191;SDS011;17580;50.850;4.504;2023-06-22T08:31:04;8.83;;;7.03;;
10191;SDS011;17580;50.850;4.504;2023-06-22T08:33:32;9.33;;;8.23;;
10191;SDS011;17580;50.850;4.504;2023-06-22T08:35:59;10.70;;;8.80;;
10191;SDS011;17580;50.850;4.504;2023-06-22T08:38:26;8.50;;;7.80;;
10191;SDS011;17580;50.850;4.504;2023-06-22T08:40:53;10.03;;;8.83;;
10191;SDS011;17580;50.850;4.504;2023-06-22T08:43:20;8.57;;;7.80;;
10191;SDS011;17580;50.850;4.504;2023-06-22T08:45:47;8.60;;;7.17;;
10191;SDS011;17580;50.850;4.504;2023-06-22T08:48:14;9.53;;;8.63;;
10191;SDS011;17580;50.850;4.504;2023-06-22T08:50:42;8.47;;;7.50;;
10191;SDS011;17580;50.850;4.504;2023-06-22T08:53:09;8.27;;;7.47;;
10191;SDS011;17580;50.850;4.504;2023-06-22T08:55:36;8.87;;;8.07;;
10191;SDS011;17580;50.850;4.504;2023-06-22T08:58:03;7.83;;;7.13;;
10191;SDS011;17580;50.850;4.504;2023-06-22T09:00:31;8.83;;;7.10;;
10191;SDS011;17580;50.850;4.504;2023-06-22T09:03:00;7.97;;;7.23;;
10191;SDS011;17580;50.850;4.504;2023-06-22T09:05:27;7.23;;;6.63;;
10191;SDS011;17580;50.850;4.504;2023-06-22T09:07:55;5.60;;;5.20;;
10191;SDS011;17580;50.850;4.504;2023-06-22T09:10:23;6.13;;;5.63;;
10191;SDS011;17580;50.850;4.504;2023-06-22T09:12:50;5.60;;;5.10;;
10191;SDS011;17580;50.850;4.504;2023-06-22T09:15:17;5.40;;;4.90;;
10191;SDS011;17580;50.850;4.504;2023-06-22T09:17:45;5.67;;;5.20;;
10191;SDS011;17580;50.850;4.504;2023-06-22T09:20:12;6.00;;;5.30;;
10191;SDS011;17580;50.850;4.504;2023-06-22T09:22:39;5.33;;;4.93;;
10191;SDS011;17580;50.850;4.504;2023-06-22T09:25:08;5.77;;;5.27;;
10191;SDS011;17580;50.850;4.504;2023-06-22T09:27:36;5.77;;;5.27;;
10191;SDS011;17580;50.850;4.504;2023-06-22T09:30:03;6.80;;;5.73;;
10191;SDS011;17580;50.850;4.504;2023-06-22T09:32:31;7.40;;;6.80;;
10191;SDS011;17580;50.850;4.504;2023-06-22T09:34:58;11.97;;;7.67;;
10191;SDS011;17580;50.850;4.504;2023-06-22T09:37:28;10.57;;;7.83;;
10191;SDS011;17580;50.850;4.504;2023-06-22T09:39:55;9.03;;;6.83;;
10191;SDS011;17580;50.850;4.504;2023-06-22T09:42:24;7.50;;;6.70;;
10191;SDS011;17580;50.850;4.504;2023-06-22T09:44:51;7.33;;;6.63;;
10191;SDS011;17580;50.850;4.504;2023-06-22T09:47:18;7.63;;;6.93;;
10191;SDS011;17580;50.850;4.504;2023-06-22T09:49:45;10.03;;;6.97;;
10191;SDS011;17580;50.850;4.504;2023-06-22T09:52:12;11.57;;;7.93;;
10191;SDS011;17580;50.850;4.504;2023-06-22T09:54:39;8.00;;;7.30;;
10191;SDS011;17580;50.850;4.504;2023-06-22T09:57:06;13.50;;;7.73;;
10191;SDS011;17580;50.850;4.504;2023-06-22T09:59:34;15.93;;;7.47;;
10191;SDS011;17580;50.850;4.504;2023-06-22T10:02:01;8.50;;;7.70;;
10191;SDS011;17580;50.850;4.504;2023-06-22T10:04:28;13.47;;;8.20;;
10191;SDS011;17580;50.850;4.504;2023-06-22T10:06:55;8.47;;;7.77;;
10191;SDS011;17580;50.850;4.504;2023-06-22T10:09:22;20.57;;;8.23;;
10191;SDS011;17580;50.850;4.504;2023-06-22T10:11:49;9.03;;;8.13;;
10191;SDS011;17580;50.850;4.504;2023-06-22T10:14:16;8.43;;;7.60;;
10191;SDS011;17580;50.850;4.504;2023-06-22T10:16:44;8.50;;;7.70;;
10191;SDS011;17580;50.850;4.504;2023-06-22T10:19:11;10.07;;;8.53;;
10191;SDS011;17580;50.850;4.504;2023-06-22T10:21:38;9.43;;;8.50;;
10191;SDS011;17580;50.850;4.504;2023-06-22T10:24:05;9.67;;;8.87;;
10191;SDS011;17580;50.850;4.504;2023-06-22T10:26:32;9.90;;;9.00;;
10191;SDS011;17580;50.850;4.504;2023-06-22T10:28:59;10.87;;;9.97;;
10191;SDS011;17580;50.850;4.504;2023-06-22T10:31:27;10.13;;;9.23;;
10191;SDS011;17580;50.850;4.504;2023-06-22T10:33:55;11.60;;;8.97;;
10191;SDS011;17580;50.850;4.504;2023-06-22T10:36:22;10.40;;;9.30;;
10191;SDS011;17580;50.850;4.504;2023-06-22T10:38:49;11.50;;;10.50;;
10191;SDS011;17580;50.850;4.504;2023-06-22T10:41:17;14.87;;;10.77;;
10191;SDS011;17580;50.850;4.504;2023-06-22T10:43:44;11.57;;;10.57;;
10191;SDS011;17580;50.850;4.504;2023-06-22T10:46:12;14.97;;;12.03;;
10191;SDS011;17580;50.850;4.504;2023-06-22T10:48:39;11.93;;;10.77;;
10191;SDS011;17580;50.850;4.504;2023-06-22T10:51:07;13.10;;;12.00;;
10191;SDS011;17580;50.850;4.504;2023-06-22T10:53:34;13.97;;;12.73;;
10191;SDS011;17580;50.850;4.504;2023-06-22T10:56:01;13.20;;;12.10;;
10191;SDS011;17580;50.850;4.504;2023-06-22T10:58:28;13.47;;;12.27;;
10191;SDS011;17580;50.850;4.504;2023-06-22T11:00:55;13.27;;;11.87;;
10191;SDS011;17580;50.850;4.504;2023-06-22T11:03:22;13.03;;;11.83;;
10191;SDS011;17580;50.850;4.504;2023-06-22T11:05:48;14.90;;;13.43;;
10191;SDS011;17580;50.850;4.504;2023-06-22T11:08:17;15.43;;;13.93;;
10191;SDS011;17580;50.850;4.504;2023-06-22T11:10:44;14.53;;;13.27;;
10191;SDS011;17580;50.850;4.504;2023-06-22T11:13:11;14.63;;;13.23;;
10191;SDS011;17580;50.850;4.504;2023-06-22T11:15:38;14.33;;;12.93;;
10191;SDS011;17580;50.850;4.504;2023-06-22T11:18:05;15.20;;;13.80;;
10191;SDS011;17580;50.850;4.504;2023-06-22T11:20:33;16.03;;;14.50;;
10191;SDS011;17580;50.850;4.504;2023-06-22T11:23:03;16.07;;;14.63;;
10191;SDS011;17580;50.850;4.504;2023-06-22T11:25:32;15.63;;;14.23;;
10191;SDS011;17580;50.850;4.504;2023-06-22T11:28:01;17.43;;;15.83;;
10191;SDS011;17580;50.850;4.504;2023-06-22T11:30:28;17.60;;;15.73;;
10191;SDS011;17580;50.850;4.504;2023-06-22T11:32:56;17.93;;;16.10;;
10191;SDS011;17580;50.850;4.504;2023-06-22T11:35:23;19.47;;;17.57;;
10191;SDS011;17580;50.850;4.504;2023-06-22T11:37:50;20.00;;;18.10;;
10191;SDS011;17580;50.850;4.504;2023-06-22T11:40:18;22.37;;;19.93;;
10191;SDS011;17580;50.850;4.504;2023-06-22T11:42:46;17.53;;;15.87;;
10191;SDS011;17580;50.850;4.504;2023-06-22T11:45:13;20.40;;;18.40;;
10191;SDS011;17580;50.850;4.504;2023-06-22T11:47:40;17.53;;;15.87;;
10191;SDS011;17580;50.850;4.504;2023-06-22T11:50:07;17.60;;;15.90;;
10191;SDS011;17580;50.850;4.504;2023-06-22T11:52:34;19.50;;;17.60;;
10191;SDS011;17580;50.850;4.504;2023-06-22T11:55:02;18.73;;;16.87;;
10191;SDS011;17580;50.850;4.504;2023-06-22T11:57:32;20.80;;;18.47;;
10191;SDS011;17580;50.850;4.504;2023-06-22T12:00:01;19.27;;;16.63;;
10191;SDS011;17580;50.850;4.504;2023-06-22T12:02:32;19.30;;;17.50;;
10191;SDS011;17580;50.850;4.504;2023-06-22T12:04:59;18.73;;;16.73;;
10191;SDS011;17580;50.850;4.504;2023-06-22T12:07:30;18.93;;;16.93;;
10191;SDS011;17580;50.850;4.504;2023-06-22T12:09:56;17.37;;;15.67;;
10191;SDS011;17580;50.850;4.504;2023-06-22T12:12:24;17.83;;;16.13;;
10191;SDS011;17580;50.850;4.504;2023-06-22T12:14:51;15.93;;;14.33;;
10191;SDS011;17580;50.850;4.504;2023-06-22T12:17:19;17.57;;;15.87;;
10191;SDS011;17580;50.850;4.504;2023-06-22T12:19:46;15.93;;;14.33;;
10191;SDS011;17580;50.850;4.504;2023-06-22T12:22:13;17.87;;;16.07;;
10191;SDS011;17580;50.850;4.504;2023-06-22T12:24:40;16.93;;;15.27;;
10191;SDS011;17580;50.850;4.504;2023-06-22T12:27:06;18.33;;;15.20;;
10191;SDS011;17580;50.850;4.504;2023-06-22T12:29:35;15.57;;;14.17;;
10191;SDS011;17580;50.850;4.504;2023-06-22T12:32:02;15.20;;;13.80;;
10191;SDS011;17580;50.850;4.504;2023-06-22T12:34:31;15.80;;;14.33;;
10191;SDS011;17580;50.850;4.504;2023-06-22T12:36:58;16.53;;;15.00;;
10191;SDS011;17580;50.850;4.504;2023-06-22T12:39:25;16.87;;;15.07;;
10191;SDS011;17580;50.850;4.504;2023-06-22T12:41:51;15.70;;;14.30;;
10191;SDS011;17580;50.850;4.504;2023-06-22T12:44:18;15.30;;;14.00;;
10191;SDS011;17580;50.850;4.504;2023-06-22T12:46:45;16.67;;;15.17;;
10191;SDS011;17580;50.850;4.504;2023-06-22T12:49:12;16.73;;;15.23;;
10191;SDS011;17580;50.850;4.504;2023-06-22T12:51:41;17.30;;;15.57;;
10191;SDS011;17580;50.850;4.504;2023-06-22T12:54:09;17.60;;;15.93;;
10191;SDS011;17580;50.850;4.504;2023-06-22T12:56:36;17.50;;;15.77;;
10191;SDS011;17580;50.850;4.504;2023-06-22T12:59:04;14.73;;;13.33;;
10191;SDS011;17580;50.850;4.504;2023-06-22T13:01:31;16.00;;;14.50;;
10191;SDS011;17580;50.850;4.504;2023-06-22T13:03:58;15.30;;;13.90;;
10191;SDS011;17580;50.850;4.504;2023-06-22T13:06:25;17.00;;;14.97;;
10191;SDS011;17580;50.850;4.504;2023-06-22T13:08:54;15.93;;;14.43;;
10191;SDS011;17580;50.850;4.504;2023-06-22T13:11:21;17.70;;;15.83;;
10191;SDS011;17580;50.850;4.504;2023-06-22T13:13:48;15.17;;;13.83;;
10191;SDS011;17580;50.850;4.504;2023-06-22T13:16:15;17.40;;;15.67;;
10191;SDS011;17580;50.850;4.504;2023-06-22T13:18:42;17.70;;;15.97;;
10191;SDS011;17580;50.850;4.504;2023-06-22T13:21:09;21.43;;;19.43;;
10191;SDS011;17580;50.850;4.504;2023-06-22T13:23:36;17.53;;;15.77;;
10191;SDS011;17580;50.850;4.504;2023-06-22T13:26:04;18.97;;;17.00;;
10191;SDS011;17580;50.850;4.504;2023-06-22T13:28:31;18.37;;;16.67;;
10191;SDS011;17580;50.850;4.504;2023-06-22T13:30:58;20.30;;;18.37;;
10191;SDS011;17580;50.850;4.504;2023-06-22T13:33:25;18.77;;;16.83;;
10191;SDS011;17580;50.850;4.504;2023-06-22T13:35:52;18.57;;;16.77;;
10191;SDS011;17580;50.850;4.504;2023-06-22T13:38:19;19.87;;;17.97;;
10191;SDS011;17580;50.850;4.504;2023-06-22T13:40:47;19.33;;;17.63;;
10191;SDS011;17580;50.850;4.504;2023-06-22T13:43:16;19.67;;;17.77;;
10191;SDS011;17580;50.850;4.504;2023-06-22T13:45:44;18.03;;;16.23;;
10191;SDS011;17580;50.850;4.504;2023-06-22T13:48:11;17.40;;;15.77;;
10191;SDS011;17580;50.850;4.504;2023-06-22T13:50:38;21.03;;;19.07;;
10191;SDS011;17580;50.850;4.504;2023-06-22T13:53:05;16.17;;;14.47;;
10191;SDS011;17580;50.850;4.504;2023-06-22T13:55:32;20.30;;;18.40;;
10191;SDS011;17580;50.850;4.504;2023-06-22T13:57:59;18.47;;;16.70;;
10191;SDS011;17580;50.850;4.504;2023-06-22T14:00:27;20.17;;;18.27;;
10191;SDS011;17580;50.850;4.504;2023-06-22T14:02:54;19.37;;;16.17;;
10191;SDS011;17580;50.850;4.504;2023-06-22T14:05:21;17.33;;;15.73;;
10191;SDS011;17580;50.850;4.504;2023-06-22T14:07:48;17.27;;;15.47;;
10191;SDS011;17580;50.850;4.504;2023-06-22T14:10:15;14.90;;;13.60;;
10191;SDS011;17580;50.850;4.504;2023-06-22T14:12:42;17.50;;;15.80;;
10191;SDS011;17580;50.850;4.504;2023-06-22T14:15:10;18.40;;;16.70;;
10191;SDS011;17580;50.850;4.504;2023-06-22T14:17:38;15.07;;;13.77;;
10191;SDS011;17580;50.850;4.504;2023-06-22T14:20:05;15.17;;;13.73;;
10191;SDS011;17580;50.850;4.504;2023-06-22T14:22:33;19.40;;;17.50;;
10191;SDS011;17580;50.850;4.504;2023-06-22T14:25:01;15.77;;;14.27;;
10191;SDS011;17580;50.850;4.504;2023-06-22T14:27:28;16.10;;;14.70;;
10191;SDS011;17580;50.850;4.504;2023-06-22T14:29:55;15.57;;;14.17;;
10191;SDS011;17580;50.850;4.504;2023-06-22T14:32:22;14.23;;;13.03;;
10191;SDS011;17580;50.850;4.504;2023-06-22T14:34:51;15.03;;;13.70;;
10191;SDS011;17580;50.850;4.504;2023-06-22T14:37:18;15.53;;;14.00;;
10191;SDS011;17580;50.850;4.504;2023-06-22T14:39:45;17.93;;;16.33;;
10191;SDS011;17580;50.850;4.504;2023-06-22T14:42:12;16.53;;;14.93;;
10191;SDS011;17580;50.850;4.504;2023-06-22T14:44:39;17.73;;;16.13;;